Time;durP1;ratioP1;P1;durP2;ratioP2;P2;SDS_P1;SDS_P2;PMS_P1;PMS_P2;Temp;Humidity;BMP_temperature;BMP_pressure;BME280_temperature;BME280_humidity;BME280_pressure;Samples;Min_cycle;Max_cycle;Signal;HPM_P1;HPM_P2
2023/08/14 00:01:49;;;;;;;;;;;;;;;29.63;43.58;94392.66;5051442;28;7358;-61
2023/08/14 00:04:16;;;;;;;;;;;;;;;29.60;42.98;94388.91;5050833;28;9487;-61
2023/08/14 00:06:44;;;;;;;;;;;;;;;29.61;43.22;94398.00;5038040;28;8819;-61
2023/08/14 00:09:28;;;;;;;;;;;;;;;29.60;43.06;94385.44;5029839;28;6993;-61
2023/08/14 00:12:28;;;;;;;;;;;;;;;29.58;43.65;94385.94;5041371;28;6949;-61
2023/08/14 00:15:05;;;;;;;;;;;;;;;29.56;43.58;94391.28;5015944;28;7000;-61
2023/08/14 00:17:51;;;;;;;;;;;;;;;29.55;43.89;94395.34;5015143;28;7819;-61
2023/08/14 00:20:18;;;;;;;;;;;;;;;29.54;42.95;94387.56;4997753;28;6945;-61
2023/08/14 00:22:44;;;;;;;;;;;;;;;29.52;43.27;94379.78;5027676;28;7320;-61
2023/08/14 00:25:15;;;;;;;;;;;;;;;29.54;43.44;94382.00;5028070;28;7539;-61
2023/08/14 00:28:11;;;;;;;;;;;;;;;29.53;42.89;94386.84;5024627;28;7417;-61
2023/08/14 00:31:04;;;;;;;;;;;;;;;29.54;43.45;94379.25;4991840;28;7029;-61
2023/08/14 00:33:31;;;;;;;;;;;;;;;29.54;43.70;94374.44;4993085;28;9065;-61
2023/08/14 00:36:29;;;;;;;;;;;;;;;29.53;43.76;94375.00;4992715;28;8749;-61
2023/08/14 00:39:04;;;;;;;;;;;;;;;29.52;43.87;94376.25;4992172;28;7044;-61
2023/08/14 00:41:31;;;;;;;;;;;;;;;29.51;43.69;94367.22;4976188;28;8762;-61
2023/08/14 00:44:00;;;;;;;;;;;;;;;29.51;44.07;94367.22;4992739;28;7061;-61
2023/08/14 00:46:57;;;;;;;;;;;;;;;29.51;43.45;94370.00;4991731;28;9120;-61
2023/08/14 00:49:34;;;;;;;;;;;;;;;29.48;43.38;94375.84;4907617;29;7337;-59
2023/08/14 00:52:01;;;;;;;;;;;;;;;29.49;43.82;94377.34;4930351;29;7228;-60
2023/08/14 00:54:27;;;;;;;;;;;;;;;29.49;43.48;94385.66;4920142;29;8796;-60
2023/08/14 00:56:53;;;;;;;;;;;;;;;29.48;43.89;94378.63;4933887;29;7339;-60
2023/08/14 00:59:21;;;;;;;;;;;;;;;29.47;43.63;94371.59;4934926;29;9297;-60
2023/08/14 01:01:47;;;;;;;;;;;;;;;29.45;43.90;94363.09;4949051;28;7076;-60
2023/08/14 01:04:13;;;;;;;;;;;;;;;29.46;43.82;94365.31;4921873;28;7065;-60
2023/08/14 01:06:41;;;;;;;;;;;;;;;29.47;43.80;94360.53;4944912;28;7046;-60
2023/08/14 01:09:09;;;;;;;;;;;;;;;29.46;44.03;94357.00;4949260;28;7183;-60
2023/08/14 01:12:04;;;;;;;;;;;;;;;29.44;44.34;94365.09;4945163;28;7205;-60
2023/08/14 01:14:36;;;;;;;;;;;;;;;29.45;43.34;94374.91;4926735;28;9081;-60
2023/08/14 01:17:13;;;;;;;;;;;;;;;29.44;44.11;94362.34;4932411;28;7104;-60
2023/08/14 01:19:49;;;;;;;;;;;;;;;29.42;43.49;94356.59;4923572;29;7225;-60
2023/08/14 01:23:04;;;;;;;;;;;;;;;29.42;43.70;94359.34;4949377;28;7199;-60
2023/08/14 01:25:33;;;;;;;;;;;;;;;29.41;44.02;94357.09;4993805;28;7422;-60
2023/08/14 01:28:01;;;;;;;;;;;;;;;29.40;44.10;94353.59;5022339;28;9421;-60
2023/08/14 01:30:29;;;;;;;;;;;;;;;29.42;43.90;94353.06;5030308;28;8630;-60
2023/08/14 01:33:10;;;;;;;;;;;;;;;29.41;44.09;94349.53;5009285;28;7238;-59
2023/08/14 01:36:27;;;;;;;;;;;;;;;29.41;43.86;94352.31;5013486;28;9175;-60
2023/08/14 01:39:38;;;;;;;;;;;;;;;29.42;43.92;94341.97;4970417;28;9626;-60
2023/08/14 01:42:19;;;;;;;;;;;;;;;29.39;44.30;94337.50;4962493;28;8854;-60
2023/08/14 01:44:51;;;;;;;;;;;;;;;29.39;44.06;94332.72;4954219;28;7405;-60
2023/08/14 01:47:38;;;;;;;;;;;;;;;29.40;43.80;94339.75;4971756;28;7216;-60
2023/08/14 01:50:35;;;;;;;;;;;;;;;29.38;43.46;94341.56;4970916;28;7239;-60
2023/08/14 01:53:02;;;;;;;;;;;;;;;29.41;44.25;94338.47;4932869;29;9303;-60
2023/08/14 01:55:38;;;;;;;;;;;;;;;29.44;44.36;94339.41;4932298;29;7172;-60
2023/08/14 01:58:04;;;;;;;;;;;;;;;29.44;43.50;94329.09;4917636;29;7247;-60
2023/08/14 02:00:39;;;;;;;;;;;;;;;29.44;43.71;94322.78;4929435;29;7010;-60
2023/08/14 02:03:11;;;;;;;;;;;;;;;29.47;43.62;94321.72;4925014;29;8773;-60
2023/08/14 02:06:14;;;;;;;;;;;;;;;29.48;43.79;94315.63;4927498;29;9094;-60
2023/08/14 02:09:10;;;;;;;;;;;;;;;29.50;44.51;94315.84;4918462;29;7360;-60
2023/08/14 02:11:36;;;;;;;;;;;;;;;29.51;43.83;94311.03;4912784;29;9060;-60
2023/08/14 02:14:13;;;;;;;;;;;;;;;29.51;43.67;94305.50;4921781;29;7294;-60
2023/08/14 02:16:41;;;;;;;;;;;;;;;29.52;44.35;94306.97;4962888;28;7211;-60
2023/08/14 02:19:11;;;;;;;;;;;;;;;29.50;44.12;94298.47;4973700;28;7415;-60
2023/08/14 02:21:39;;;;;;;;;;;;;;;29.50;44.14;94298.47;4972333;28;7006;-60
2023/08/14 02:24:16;;;;;;;;;;;;;;;29.51;44.11;94288.88;4987431;28;7231;-60
2023/08/14 02:26:43;;;;;;;;;;;;;;;29.50;44.45;94293.66;4989925;28;7234;-60
2023/08/14 02:29:45;;;;;;;;;;;;;;;29.52;44.48;94306.97;4991466;28;8392;-61
2023/08/14 02:32:28;;;;;;;;;;;;;;;29.52;44.01;94304.97;4923439;29;6988;-60
2023/08/14 02:34:55;;;;;;;;;;;;;;;29.54;43.06;94307.19;4932885;29;8796;-60
2023/08/14 02:37:22;;;;;;;;;;;;;;;29.52;43.56;94299.41;4909087;29;6989;-60
2023/08/14 02:39:58;;;;;;;;;;;;;;;29.54;43.67;94296.09;4936901;29;9208;-61
2023/08/14 02:42:36;;;;;;;;;;;;;;;29.52;44.37;94293.13;4919237;29;7069;-60
2023/08/14 02:45:03;;;;;;;;;;;;;;;29.53;44.20;94294.63;4930510;29;8226;-60
2023/08/14 02:47:39;;;;;;;;;;;;;;;29.53;43.89;94295.38;4916957;29;7169;-60
2023/08/14 02:50:16;;;;;;;;;;;;;;;29.52;43.30;94295.88;4913308;29;8757;-60
2023/08/14 02:53:00;;;;;;;;;;;;;;;29.51;43.22;94297.94;4956934;28;7204;-60
2023/08/14 02:55:38;;;;;;;;;;;;;;;29.52;43.12;94293.88;4969519;28;7085;-60
2023/08/14 02:58:14;;;;;;;;;;;;;;;29.52;43.90;94298.66;4971992;28;7307;-60
2023/08/14 03:00:53;;;;;;;;;;;;;;;29.52;43.06;94293.13;4968783;28;7628;-60
2023/08/14 03:03:20;;;;;;;;;;;;;;;29.52;43.73;94295.88;4974461;28;7153;-60
2023/08/14 03:05:46;;;;;;;;;;;;;;;29.51;44.02;94294.41;4994788;28;7001;-60
2023/08/14 03:08:34;;;;;;;;;;;;;;;29.49;43.97;94297.00;5053614;28;9013;-60
2023/08/14 03:11:04;;;;;;;;;;;;;;;29.46;43.77;94290.50;5044675;28;7911;-60
2023/08/14 03:14:20;;;;;;;;;;;;;;;29.48;43.00;94293.47;5055220;28;7224;-60
2023/08/14 03:16:47;;;;;;;;;;;;;;;29.46;43.74;94298.81;5069855;28;7254;-60
2023/08/14 03:19:16;;;;;;;;;;;;;;;29.45;43.45;94299.34;5052637;28;7380;-60
2023/08/14 03:21:42;;;;;;;;;;;;;;;29.46;44.20;94303.59;5062487;28;9572;-59
2023/08/14 03:24:08;;;;;;;;;;;;;;;29.46;44.02;94298.06;5054248;28;8185;-60
2023/08/14 03:26:36;;;;;;;;;;;;;;;29.47;44.16;94296.78;5064366;28;7035;-60
2023/08/14 03:29:07;;;;;;;;;;;;;;;29.46;43.25;94286.97;5058343;28;7143;-60
2023/08/14 03:31:46;;;;;;;;;;;;;;;29.45;43.95;94296.59;5039922;28;7426;-59
2023/08/14 03:34:18;;;;;;;;;;;;;;;29.42;43.77;94292.84;5043865;28;8694;-59
2023/08/14 03:36:51;;;;;;;;;;;;;;;29.42;43.42;94290.09;5048692;28;7237;-60
2023/08/14 03:39:18;;;;;;;;;;;;;;;29.44;43.34;94289.53;5044966;28;9089;-60
2023/08/14 03:41:46;;;;;;;;;;;;;;;29.43;43.84;94285.25;5058654;28;7035;-60
2023/08/14 03:44:50;;;;;;;;;;;;;;;29.41;43.58;94285.06;5063409;28;9165;-59
2023/08/14 03:47:34;;;;;;;;;;;;;;;29.43;43.36;94279.72;4987230;28;7086;-59
2023/08/14 03:50:04;;;;;;;;;;;;;;;29.39;43.73;94277.28;4972573;28;7191;-59
2023/08/14 03:52:55;;;;;;;;;;;;;;;29.36;43.42;94281.13;4987170;28;7085;-60
2023/08/14 03:55:34;;;;;;;;;;;;;;;29.32;43.51;94277.97;4969368;28;7618;-60
2023/08/14 03:58:11;;;;;;;;;;;;;;;29.31;44.12;94278.50;4984849;28;6866;-60
2023/08/14 04:00:58;;;;;;;;;;;;;;;29.27;43.68;94280.88;4990765;28;7212;-60
2023/08/14 04:03:26;;;;;;;;;;;;;;;29.25;44.09;94281.41;4987237;28;7225;-60
2023/08/14 04:06:01;;;;;;;;;;;;;;;29.24;43.82;94284.69;4986120;28;7846;-60
2023/08/14 04:08:39;;;;;;;;;;;;;;;29.23;43.69;94275.63;4974949;28;7120;-60
2023/08/14 04:11:06;;;;;;;;;;;;;;;29.22;44.25;94268.63;4977717;28;7223;-60
2023/08/14 04:13:36;;;;;;;;;;;;;;;29.22;43.57;94267.88;4969008;28;9407;-60
2023/08/14 04:16:43;;;;;;;;;;;;;;;29.22;44.05;94267.88;4972978;28;7473;-60
2023/08/14 04:19:15;;;;;;;;;;;;;;;29.21;44.22;94277.47;4915539;29;7531;-54
2023/08/14 04:21:43;;;;;;;;;;;;;;;29.21;43.17;94274.72;4963388;28;9066;-54
2023/08/14 04:24:10;;;;;;;;;;;;;;;29.20;43.50;94281.53;4990276;28;7210;-54
2023/08/14 04:26:37;;;;;;;;;;;;;;;29.19;43.31;94280.03;4971881;28;7429;-54
2023/08/14 04:29:12;;;;;;;;;;;;;;;29.15;43.46;94277.56;4996261;28;8586;-54
2023/08/14 04:31:56;;;;;;;;;;;;;;;29.18;43.77;94282.06;4991276;28;7204;-55
2023/08/14 04:34:34;;;;;;;;;;;;;;;29.13;43.36;94279.38;5006998;28;7367;-54
2023/08/14 04:37:17;;;;;;;;;;;;;;;29.14;43.11;94289.19;5005071;28;9073;-54
2023/08/14 04:39:43;;;;;;;;;;;;;;;29.14;43.16;94280.88;4991027;28;7259;-54
2023/08/14 04:42:12;;;;;;;;;;;;;;;29.13;43.05;94279.38;4986259;28;7056;-54
2023/08/14 04:44:38;;;;;;;;;;;;;;;29.15;43.28;94279.56;4988785;28;7232;-54
2023/08/14 04:47:07;;;;;;;;;;;;;;;29.12;42.78;94269.59;4987954;28;7629;-55
2023/08/14 04:49:35;;;;;;;;;;;;;;;29.15;43.89;94274.78;4976019;28;7228;-54
2023/08/14 04:52:04;;;;;;;;;;;;;;;29.14;43.45;94278.09;4986410;28;7135;-54
2023/08/14 04:54:32;;;;;;;;;;;;;;;29.15;43.55;94271.28;4996040;28;7123;-54
2023/08/14 04:57:05;;;;;;;;;;;;;;;29.13;43.79;94271.81;5050084;28;9177;-54
2023/08/14 05:00:04;;;;;;;;;;;;;;;29.13;43.65;94282.91;5048361;28;8781;-55
2023/08/14 05:02:31;;;;;;;;;;;;;;;29.10;43.49;94287.47;4983422;28;7232;-54
2023/08/14 05:05:23;;;;;;;;;;;;;;;29.09;43.90;94286.00;4986833;28;9051;-54
2023/08/14 05:07:52;;;;;;;;;;;;;;;29.05;43.73;94277.28;4988906;28;7403;-54
2023/08/14 05:10:48;;;;;;;;;;;;;;;29.08;42.90;94273.41;4977579;28;7263;-55
2023/08/14 05:13:18;;;;;;;;;;;;;;;29.05;44.00;94271.75;4970113;28;7279;-55
2023/08/14 05:16:16;;;;;;;;;;;;;;;29.08;44.68;94264.38;4975050;28;7140;-54
2023/08/14 05:18:49;;;;;;;;;;;;;;;29.08;43.59;94267.13;4914570;29;9111;-54
2023/08/14 05:21:14;;;;;;;;;;;;;;;29.13;44.11;94269.03;4905044;29;7366;-54
2023/08/14 05:23:40;;;;;;;;;;;;;;;29.14;43.90;94272.56;4904113;29;9097;-55
2023/08/14 05:26:38;;;;;;;;;;;;;;;29.15;43.13;94276.81;4904654;29;7442;-54
2023/08/14 05:29:23;;;;;;;;;;;;;;;29.14;43.72;94278.84;4928859;29;9420;-56
2023/08/14 05:31:51;;;;;;;;;;;;;;;29.10;44.07;94275.69;4923108;29;7187;-55
2023/08/14 05:34:26;;;;;;;;;;;;;;;29.12;42.97;94275.88;4907494;29;9345;-55
2023/08/14 05:36:54;;;;;;;;;;;;;;;29.13;44.22;94276.59;4908560;29;9380;-56
2023/08/14 05:39:21;;;;;;;;;;;;;;;29.12;44.30;94277.91;4945229;28;6852;-55
2023/08/14 05:41:47;;;;;;;;;;;;;;;29.12;43.83;94280.66;4998495;28;9304;-55
2023/08/14 05:44:13;;;;;;;;;;;;;;;29.12;44.24;94277.91;4962031;28;7523;-55
2023/08/14 05:46:42;;;;;;;;;;;;;;;29.11;44.07;94271.59;4984091;28;7346;-55
2023/08/14 05:49:08;;;;;;;;;;;;;;;29.09;44.23;94272.16;4982940;28;7904;-55
2023/08/14 05:51:34;;;;;;;;;;;;;;;29.10;44.34;94262.56;4968128;28;7169;-55
2023/08/14 05:54:01;;;;;;;;;;;;;;;29.12;45.17;94269.59;4995192;28;6972;-56
2023/08/14 05:57:20;;;;;;;;;;;;;;;29.15;43.87;94260.19;5047637;28;7103;-56
2023/08/14 05:59:52;;;;;;;;;;;;;;;29.15;44.13;94257.41;4967155;28;8907;-55
2023/08/14 06:02:23;;;;;;;;;;;;;;;29.13;45.49;94262.75;4971906;28;7223;-55
2023/08/14 06:05:08;;;;;;;;;;;;;;;29.12;44.15;94250.19;4991718;28;7239;-55
2023/08/14 06:07:53;;;;;;;;;;;;;;;29.16;44.33;94254.16;4977372;28;7430;-55
2023/08/14 06:10:20;;;;;;;;;;;;;;;29.17;45.09;94252.16;4980842;28;7148;-55
2023/08/14 06:13:11;;;;;;;;;;;;;;;29.17;44.40;94257.69;4982104;28;7261;-56
2023/08/14 06:15:38;;;;;;;;;;;;;;;29.16;44.81;94256.94;4975047;28;7489;-55
2023/08/14 06:18:25;;;;;;;;;;;;;;;29.19;44.79;94252.34;4976048;28;7079;-55
2023/08/14 06:20:51;;;;;;;;;;;;;;;29.18;44.34;94257.13;4977505;28;7252;-55
2023/08/14 06:23:26;;;;;;;;;;;;;;;29.18;44.78;94259.16;4971511;28;9510;-56
2023/08/14 06:26:18;;;;;;;;;;;;;;;29.21;45.01;94247.72;4982937;28;8186;-55
2023/08/14 06:28:55;;;;;;;;;;;;;;;29.21;44.06;94249.78;4981373;28;8423;-55
2023/08/14 06:31:34;;;;;;;;;;;;;;;29.18;44.65;94243.28;4965567;28;9109;-55
2023/08/14 06:34:05;;;;;;;;;;;;;;;29.19;44.89;94246.81;4982453;28;7512;-56
2023/08/14 06:37:00;;;;;;;;;;;;;;;29.19;44.71;94247.53;5053346;28;7250;-55
2023/08/14 06:40:04;;;;;;;;;;;;;;;29.19;43.89;94246.81;5039400;28;7449;-63
2023/08/14 06:43:00;;;;;;;;;;;;;;;29.20;44.09;94248.28;5045966;28;7181;-63
2023/08/14 06:45:26;;;;;;;;;;;;;;;29.18;44.26;94234.97;5042458;28;6985;-63
2023/08/14 06:48:15;;;;;;;;;;;;;;;29.20;43.61;94240.72;5047830;28;7185;-63
2023/08/14 06:51:04;;;;;;;;;;;;;;;29.19;44.63;94242.00;5042125;28;9026;-63
2023/08/14 06:53:38;;;;;;;;;;;;;;;29.18;43.88;94237.75;5049491;28;7204;-63
2023/08/14 06:59:54;;;;;;;;;;;;;;;29.20;45.07;94240.72;4993045;28;7352;-63
2023/08/14 07:02:32;;;;;;;;;;;;;;;29.20;44.33;94239.97;4980292;28;7284;-63
2023/08/14 07:05:33;;;;;;;;;;;;;;;29.21;45.01;94247.00;4989806;28;9267;-63
2023/08/14 07:08:03;;;;;;;;;;;;;;;29.20;44.17;94237.94;4934458;28;7239;-63
2023/08/14 07:10:31;;;;;;;;;;;;;;;29.23;44.55;94244.44;4915492;28;7449;-63
2023/08/14 07:13:11;;;;;;;;;;;;;;;29.22;44.48;94249.22;4937242;28;7014;-63
2023/08/14 07:15:48;;;;;;;;;;;;;;;29.23;45.21;94253.47;4932853;28;7057;-63
2023/08/14 07:18:25;;;;;;;;;;;;;;;29.24;44.60;94254.97;4913140;29;7202;-63
2023/08/14 07:20:52;;;;;;;;;;;;;;;29.22;44.56;94246.47;4931508;28;8778;-64
2023/08/14 07:23:26;;;;;;;;;;;;;;;29.20;44.18;94242.75;4933799;28;8798;-63
2023/08/14 07:26:19;;;;;;;;;;;;;;;29.23;43.94;94244.44;4919385;29;7192;-63
2023/08/14 07:29:05;;;;;;;;;;;;;;;29.24;44.73;94237.59;4933909;28;7153;-64
2023/08/14 07:31:44;;;;;;;;;;;;;;;29.24;44.61;94241.13;4915575;29;7193;-63
2023/08/14 07:34:39;;;;;;;;;;;;;;;29.26;44.76;94230.25;4942316;28;7408;-63
2023/08/14 07:37:15;;;;;;;;;;;;;;;29.23;45.62;94225.78;4968224;28;7181;-64
2023/08/14 07:39:41;;;;;;;;;;;;;;;29.24;45.19;94226.53;4978704;28;7092;-65
2023/08/14 07:42:11;;;;;;;;;;;;;;;29.26;45.71;94238.56;5039501;28;7230;-65
2023/08/14 07:44:56;;;;;;;;;;;;;;;29.25;44.88;94239.09;5051571;28;7111;-64
2023/08/14 07:47:42;;;;;;;;;;;;;;;29.28;45.34;94243.56;5052086;28;9566;-61
2023/08/14 07:50:39;;;;;;;;;;;;;;;29.28;45.19;94244.31;5045814;28;7305;-61
2023/08/14 07:53:07;;;;;;;;;;;;;;;29.31;44.94;94245.25;5002155;28;7291;-61
2023/08/14 07:55:33;;;;;;;;;;;;;;;29.34;44.91;94255.28;4990814;28;6989;-60
2023/08/14 07:58:11;;;;;;;;;;;;;;;29.37;45.05;94260.47;5008519;28;8779;-61
2023/08/14 08:00:52;;;;;;;;;;;;;;;29.37;45.28;94257.69;5012531;28;7188;-61
2023/08/14 08:04:11;;;;;;;;;;;;;;;29.43;45.00;94263.84;4983552;28;7240;-61
2023/08/14 08:06:40;;;;;;;;;;;;;;;29.46;44.66;94264.81;4916728;29;7162;-60
2023/08/14 08:09:08;;;;;;;;;;;;;;;29.48;44.97;94273.31;4927921;29;7244;-61
2023/08/14 08:12:04;;;;;;;;;;;;;;;29.49;44.49;94272.03;4932444;29;7097;-61
2023/08/14 08:15:09;;;;;;;;;;;;;;;29.50;44.82;94265.19;4917246;29;7243;-60
2023/08/14 08:17:36;;;;;;;;;;;;;;;29.49;44.03;94272.03;4913087;29;7022;-60
2023/08/14 08:20:11;;;;;;;;;;;;;;;29.51;44.77;94277.78;4930390;29;7229;-60
2023/08/14 08:22:42;;;;;;;;;;;;;;;29.52;45.25;94271.69;4906923;29;7277;-61
2023/08/14 08:25:09;;;;;;;;;;;;;;;29.52;44.79;94273.72;4916144;29;7232;-61
2023/08/14 08:27:54;;;;;;;;;;;;;;;29.53;44.42;94275.97;4924451;29;7038;-61
2023/08/14 08:30:33;;;;;;;;;;;;;;;29.54;44.92;94276.69;4968932;28;7224;-60
2023/08/14 08:33:15;;;;;;;;;;;;;;;29.55;43.78;94275.41;4971724;28;8774;-61
2023/08/14 08:35:43;;;;;;;;;;;;;;;29.52;44.33;94263.38;4990736;28;7335;-61
2023/08/14 08:38:09;;;;;;;;;;;;;;;29.51;44.83;94270.22;4973207;28;8740;-61
2023/08/14 08:41:12;;;;;;;;;;;;;;;29.55;44.22;94265.09;4987001;28;7138;-61
2023/08/14 08:44:05;;;;;;;;;;;;;;;29.56;44.04;94271.34;5055539;28;6990;-61
2023/08/14 08:46:58;;;;;;;;;;;;;;;29.57;43.94;94278.41;5042587;28;7263;-61
2023/08/14 08:49:38;;;;;;;;;;;;;;;29.58;44.63;94280.63;5055782;28;6981;-61
2023/08/14 08:52:17;;;;;;;;;;;;;;;29.57;44.85;94268.06;5038944;28;8745;-61
2023/08/14 08:58:51;;;;;;;;;;;;;;;29.59;44.05;94273.06;5046785;28;8836;-61
2023/08/14 09:01:23;;;;;;;;;;;;;;;29.57;44.25;94270.09;5048063;28;9055;-60
2023/08/14 09:03:51;;;;;;;;;;;;;;;29.61;44.24;94270.47;5044617;28;9033;-60
2023/08/14 09:06:34;;;;;;;;;;;;;;;29.60;45.04;94266.25;5030891;28;6984;-60
2023/08/14 09:09:12;;;;;;;;;;;;;;;29.61;44.67;94264.94;5044485;28;9100;-60
2023/08/14 09:11:45;;;;;;;;;;;;;;;29.62;44.04;94277.53;5032773;28;7239;-61
2023/08/14 09:14:23;;;;;;;;;;;;;;;29.63;43.97;94285.28;5053421;28;7226;-61
2023/08/14 09:16:57;;;;;;;;;;;;;;;29.63;44.90;94284.53;5041119;28;7230;-61
2023/08/14 09:19:26;;;;;;;;;;;;;;;29.61;44.84;94282.31;5028994;28;8968;-60
2023/08/14 09:21:54;;;;;;;;;;;;;;;29.65;44.83;94287.53;5022788;28;7373;-61
2023/08/14 09:24:33;;;;;;;;;;;;;;;29.64;44.40;94277.72;5032094;28;8924;-61
2023/08/14 09:27:15;;;;;;;;;;;;;;;29.65;44.10;94276.44;5041993;28;9108;-61
2023/08/14 09:29:43;;;;;;;;;;;;;;;29.66;43.82;94278.69;5034096;28;8428;-61
2023/08/14 09:32:17;;;;;;;;;;;;;;;29.65;44.29;94270.88;5032557;28;9031;-61
2023/08/14 09:34:46;;;;;;;;;;;;;;;29.67;44.71;94282.19;5049564;28;6979;-61
2023/08/14 09:37:12;;;;;;;;;;;;;;;29.67;44.37;94274.59;5043114;28;9304;-61
2023/08/14 09:39:38;;;;;;;;;;;;;;;29.66;43.85;94277.94;5029161;28;7950;-61
2023/08/14 09:42:04;;;;;;;;;;;;;;;29.65;44.81;94281.97;5036257;28;7261;-61
2023/08/14 09:44:30;;;;;;;;;;;;;;;29.69;44.37;94282.38;5026988;28;7406;-60
2023/08/14 09:46:59;;;;;;;;;;;;;;;29.69;45.07;94283.13;5029004;28;7233;-61
2023/08/14 09:49:30;;;;;;;;;;;;;;;29.71;44.17;94274.28;5031954;28;9096;-61
2023/08/14 09:52:19;;;;;;;;;;;;;;;29.70;43.79;94264.47;5029752;28;8269;-61
2023/08/14 09:54:54;;;;;;;;;;;;;;;29.71;44.52;94265.97;5029731;28;8782;-61
2023/08/14 09:57:29;;;;;;;;;;;;;;;29.73;44.41;94271.72;5039386;28;7194;-61
2023/08/14 10:00:14;;;;;;;;;;;;;;;29.74;43.84;94268.44;5030976;28;7263;-61
2023/08/14 10:03:10;;;;;;;;;;;;;;;29.74;44.70;94273.22;5043894;28;7267;-60
2023/08/14 10:06:09;;;;;;;;;;;;;;;29.74;44.72;94267.69;4968989;28;7244;-60
2023/08/14 10:09:25;;;;;;;;;;;;;;;29.76;43.96;94273.41;4984369;28;7337;-60
2023/08/14 10:11:55;;;;;;;;;;;;;;;29.76;44.11;94265.84;4945967;28;7303;-60
2023/08/14 10:15:15;;;;;;;;;;;;;;;29.79;44.07;94272.34;4934892;29;7599;-61
2023/08/14 10:18:14;;;;;;;;;;;;;;;29.79;44.68;94264.78;4942672;29;7434;-59
2023/08/14 10:21:14;;;;;;;;;;;;;;;29.80;44.52;94268.28;4935308;29;7179;-60
2023/08/14 10:23:44;;;;;;;;;;;;;;;29.83;43.87;94278.28;4897652;29;7219;-60
2023/08/14 10:26:35;;;;;;;;;;;;;;;29.83;43.89;94281.06;4913636;29;7294;-60
2023/08/14 10:29:28;;;;;;;;;;;;;;;29.83;44.47;94286.59;4895299;29;7084;-60
2023/08/14 10:31:57;;;;;;;;;;;;;;;29.83;44.44;94297.69;4917185;29;7289;-60
2023/08/14 10:34:26;;;;;;;;;;;;;;;29.82;44.89;94307.28;4916442;29;7184;-60
2023/08/14 10:37:09;;;;;;;;;;;;;;;29.79;43.95;94313.94;4913490;29;7118;-60
2023/08/14 10:39:35;;;;;;;;;;;;;;;29.78;44.40;94317.97;4915078;29;7187;-60
2023/08/14 10:42:22;;;;;;;;;;;;;;;29.74;44.73;94309.25;4930293;28;7081;-60
2023/08/14 10:45:16;;;;;;;;;;;;;;;29.79;45.65;94311.16;4974207;28;9097;-60
2023/08/14 10:48:10;;;;;;;;;;;;;;;29.80;45.43;94324.47;4966553;28;7227;-61
2023/08/14 10:50:40;;;;;;;;;;;;;;;29.79;44.44;94322.25;4972512;28;6980;-61
2023/08/14 10:53:15;;;;;;;;;;;;;;;29.79;45.46;94325.03;4988470;28;8396;-60
2023/08/14 10:56:34;;;;;;;;;;;;;;;29.77;44.91;94327.59;4993107;28;7248;-61
2023/08/14 10:59:31;;;;;;;;;;;;;;;29.76;45.11;94324.06;4935590;28;7171;-60
2023/08/14 11:02:41;;;;;;;;;;;;;;;29.76;44.19;94318.53;4968263;28;9131;-60
2023/08/14 11:05:18;;;;;;;;;;;;;;;29.77;44.84;94322.81;4949243;28;7270;-60
2023/08/14 11:07:59;;;;;;;;;;;;;;;29.80;45.29;94323.72;4971047;28;7271;-60
2023/08/14 11:10:53;;;;;;;;;;;;;;;29.84;45.80;94317.84;4953967;28;6860;-60
2023/08/14 11:13:31;;;;;;;;;;;;;;;29.86;45.43;94318.81;4967496;28;7139;-60
2023/08/14 11:16:51;;;;;;;;;;;;;;;29.90;45.48;94318.47;4979774;28;7169;-60
2023/08/14 11:19:37;;;;;;;;;;;;;;;29.87;44.19;94308.44;4891992;29;7185;-56
2023/08/14 11:22:16;;;;;;;;;;;;;;;29.87;45.32;94317.50;4915152;29;7245;-56
2023/08/14 11:24:42;;;;;;;;;;;;;;;29.89;44.66;94311.41;4904435;29;7010;-56
2023/08/14 11:27:41;;;;;;;;;;;;;;;29.90;44.98;94319.22;4899439;29;7198;-56
2023/08/14 11:30:11;;;;;;;;;;;;;;;29.92;44.77;94308.31;4894871;29;10107;-56
2023/08/14 11:32:51;;;;;;;;;;;;;;;29.94;44.10;94302.97;4916612;29;9169;-56
2023/08/14 11:38:53;;;;;;;;;;;;;;;29.94;44.27;94302.97;4989099;28;7261;-56
2023/08/14 11:41:53;;;;;;;;;;;;;;;29.97;45.11;94310.19;4981871;28;7012;-56
2023/08/14 11:44:50;;;;;;;;;;;;;;;29.97;44.90;94301.16;4972019;28;9015;-56
2023/08/14 11:47:19;;;;;;;;;;;;;;;29.95;44.39;94306.50;4986061;28;8776;-56
2023/08/14 11:49:49;;;;;;;;;;;;;;;29.93;45.16;94306.31;4971731;28;7279;-56
2023/08/14 11:52:24;;;;;;;;;;;;;;;29.96;44.94;94305.94;4984104;28;8916;-56
2023/08/14 11:54:50;;;;;;;;;;;;;;;29.97;44.65;94301.16;5045733;28;9238;-56
2023/08/14 11:57:16;;;;;;;;;;;;;;;29.95;44.78;94298.19;5059693;28;7183;-56
2023/08/14 11:59:44;;;;;;;;;;;;;;;29.93;44.90;94301.47;5045060;28;7199;-56
2023/08/14 12:02:12;;;;;;;;;;;;;;;29.93;44.85;94304.25;5032201;28;8367;-56
2023/08/14 12:04:41;;;;;;;;;;;;;;;29.94;44.60;94302.97;5024786;28;8181;-56
2023/08/14 12:07:10;;;;;;;;;;;;;;;29.93;45.31;94301.47;5047700;28;7004;-56
2023/08/14 12:09:41;;;;;;;;;;;;;;;29.95;44.13;94306.50;5048556;28;7245;-56
2023/08/14 12:12:17;;;;;;;;;;;;;;;29.96;44.44;94305.94;5033680;28;7314;-56
2023/08/14 12:15:03;;;;;;;;;;;;;;;29.96;44.82;94311.50;5045086;28;7204;-56
2023/08/14 12:17:48;;;;;;;;;;;;;;;29.99;44.96;94312.44;5035055;28;7491;-56
2023/08/14 12:20:20;;;;;;;;;;;;;;;29.99;45.00;94304.88;5029660;28;7062;-56
2023/08/14 12:23:12;;;;;;;;;;;;;;;30.00;44.77;94311.91;5036642;28;9101;-56
2023/08/14 12:25:59;;;;;;;;;;;;;;;30.01;44.84;94315.41;5042776;28;7325;-57
2023/08/14 12:28:27;;;;;;;;;;;;;;;30.01;44.69;94316.16;5031308;28;7151;-56
2023/08/14 12:30:53;;;;;;;;;;;;;;;30.01;45.31;94318.94;5052106;28;7240;-56
2023/08/14 12:33:27;;;;;;;;;;;;;;;30.04;44.74;94317.09;5047913;28;7433;-56
2023/08/14 12:36:08;;;;;;;;;;;;;;;30.06;44.50;94320.81;5032915;28;6997;-56
2023/08/14 12:38:41;;;;;;;;;;;;;;;30.05;45.20;94313.78;5029188;28;7330;-56
2023/08/14 12:41:44;;;;;;;;;;;;;;;30.11;45.24;94321.97;5027427;28;7205;-56
2023/08/14 12:44:29;;;;;;;;;;;;;;;30.09;45.21;94314.19;4967468;28;7475;-56
2023/08/14 12:47:46;;;;;;;;;;;;;;;30.12;44.88;94313.13;4934207;28;7223;-56
2023/08/14 12:50:27;;;;;;;;;;;;;;;30.13;44.33;94302.75;4910426;29;7201;-56
2023/08/14 12:53:29;;;;;;;;;;;;;;;30.18;45.48;94302.63;4914993;29;7246;-56
2023/08/14 12:56:15;;;;;;;;;;;;;;;30.16;45.45;94296.88;4861681;29;7308;-56
2023/08/14 12:58:41;;;;;;;;;;;;;;;30.18;45.14;94301.88;4875462;29;7183;-56
2023/08/14 13:01:23;;;;;;;;;;;;;;;30.17;45.56;94305.91;4874856;29;6982;-57
2023/08/14 13:03:58;;;;;;;;;;;;;;;30.19;45.42;94301.31;4869853;29;7029;-56
2023/08/14 13:06:33;;;;;;;;;;;;;;;30.20;44.60;94293.75;4876108;29;9440;-56
2023/08/14 13:09:50;;;;;;;;;;;;;;;30.23;44.95;94292.66;4876285;29;7240;-56
2023/08/14 13:12:54;;;;;;;;;;;;;;;30.25;44.48;94288.06;4857400;29;9952;-57
2023/08/14 13:19:30;;;;;;;;;;;;;;;30.33;45.06;94285.34;4898213;29;9314;-57
2023/08/14 13:21:58;;;;;;;;;;;;;;;30.35;44.84;94280.00;4912855;29;9044;-57
2023/08/14 13:24:27;;;;;;;;;;;;;;;30.37;44.56;94274.66;4905508;29;9467;-56
2023/08/14 13:27:11;;;;;;;;;;;;;;;30.34;44.29;94273.69;4953376;28;7085;-56
2023/08/14 13:30:10;;;;;;;;;;;;;;;30.35;45.31;94275.19;4960899;28;7334;-56
2023/08/14 13:32:36;;;;;;;;;;;;;;;30.34;44.30;94272.97;4932860;29;6991;-56
2023/08/14 13:35:28;;;;;;;;;;;;;;;30.37;45.12;94275.41;4946582;28;7142;-56
2023/08/14 13:38:31;;;;;;;;;;;;;;;30.39;44.41;94270.03;4915154;28;7558;-63
2023/08/14 13:41:01;;;;;;;;;;;;;;;30.37;44.95;94272.63;4907071;29;7042;-63
2023/08/14 13:44:14;;;;;;;;;;;;;;;30.38;44.41;94265.03;4894279;29;7291;-64
2023/08/14 13:46:40;;;;;;;;;;;;;;;30.37;44.65;94260.78;4865683;29;8439;-63
2023/08/14 13:52:58;;;;;;;;;;;;;;;30.40;44.85;94259.69;4849715;29;7545;-63
2023/08/14 13:55:29;;;;;;;;;;;;;;;30.42;44.41;94246.75;4823134;29;8249;-64
2023/08/14 14:01:44;;;;;;;;;;;;;;;30.44;44.52;94249.72;4889849;29;7499;-64
2023/08/14 14:04:48;;;;;;;;;;;;;;;30.43;44.22;94242.69;4874761;29;9049;-63
2023/08/14 14:07:43;;;;;;;;;;;;;;;30.40;45.05;94238.25;4899077;29;8141;-64
2023/08/14 14:10:09;;;;;;;;;;;;;;;30.40;44.29;94232.69;4869447;29;7263;-63
2023/08/14 14:12:36;;;;;;;;;;;;;;;30.41;44.83;94233.41;4874351;29;6875;-63
2023/08/14 14:15:06;;;;;;;;;;;;;;;30.41;44.55;94230.63;4857093;29;7156;-64
2023/08/14 14:17:34;;;;;;;;;;;;;;;30.44;44.31;94230.31;4874043;29;7441;-63
2023/08/14 14:20:24;;;;;;;;;;;;;;;30.45;45.19;94223.44;4884090;29;7074;-63
2023/08/14 14:23:10;;;;;;;;;;;;;;;30.46;44.75;94226.97;4917232;29;8890;-63